Assesse, Belgium
Current Conditions -  °F | °C
As of 11:55 AM on Monday 22 Dec 2014 (Local Time) from EBFS Reporting Station
Broken Clouds Broken Clouds  
Wind Chill: 36°   Ceiling: 800
Heat Index: 45°   Visibility: 6mi
Dew Point: 43°   Wind: 23mph
Humidity: 93%   Direction: 220°SW
Pressure: 30.21"   Gusts: NA
Location:  50.37°N, 5.02°E
Report Text: EBFS 221055Z 22020KT 9999 SCT004 SCT006 BKN008 07/06 Q1023 YLO YLO
Loading
Personal Weather Stations






























Interactive Weather Map New forecast layout! Learn more

10-Day Weather Forecast

Advertisements
Track Severe Weather on mobile